createdAt,value
2018-12-25T00:00:44.152Z,3.00
2018-12-25T00:03:13.451Z,3.10
2018-12-25T00:05:42.728Z,3.10
2018-12-25T00:08:12.036Z,3.20
2018-12-25T00:10:41.316Z,3.20
2018-12-25T00:13:10.610Z,3.20
2018-12-25T00:15:39.863Z,3.20
2018-12-25T00:18:09.158Z,3.20
2018-12-25T00:20:38.420Z,3.20
2018-12-25T00:23:07.724Z,3.20
2018-12-25T00:25:36.998Z,3.10
2018-12-25T00:28:06.294Z,3.10
2018-12-25T00:30:35.553Z,3.10
2018-12-25T00:33:04.832Z,3.20
2018-12-25T00:35:34.144Z,3.20
2018-12-25T00:38:03.426Z,3.20
2018-12-25T00:40:32.739Z,3.20
2018-12-25T00:43:02.054Z,3.10
2018-12-25T00:45:31.324Z,3.00
2018-12-25T00:48:01.046Z,3.10
2018-12-25T00:50:30.300Z,3.00
2018-12-25T00:52:59.596Z,2.90
2018-12-25T00:55:28.888Z,2.90
2018-12-25T00:57:58.160Z,3.00
2018-12-25T01:00:27.479Z,2.90
2018-12-25T01:02:56.735Z,2.90
2018-12-25T01:05:26.022Z,2.90
2018-12-25T01:07:55.337Z,2.90
2018-12-25T01:10:24.603Z,2.90
2018-12-25T01:12:53.886Z,2.90
2018-12-25T01:15:23.186Z,2.90
2018-12-25T01:17:52.456Z,2.90
2018-12-25T01:20:21.727Z,2.80
2018-12-25T01:22:51.038Z,2.90
2018-12-25T01:25:20.318Z,2.90
2018-12-25T01:27:49.714Z,2.90
2018-12-25T01:30:19.001Z,2.90
2018-12-25T01:32:48.277Z,3.00
2018-12-25T01:35:17.561Z,3.00
2018-12-25T01:37:46.824Z,3.00
2018-12-25T01:40:16.117Z,2.90
2018-12-25T01:42:45.388Z,3.00
2018-12-25T01:45:14.661Z,3.00
2018-12-25T01:47:43.940Z,3.00
2018-12-25T01:50:13.188Z,3.10
2018-12-25T01:52:42.482Z,3.10
2018-12-25T01:55:11.791Z,3.20
2018-12-25T01:57:41.069Z,3.10
2018-12-25T02:00:10.331Z,3.20
2018-12-25T02:02:40.533Z,3.30
2018-12-25T02:05:09.802Z,3.30
2018-12-25T02:07:39.093Z,3.40
2018-12-25T02:10:08.359Z,3.40
2018-12-25T02:12:37.615Z,3.40
2018-12-25T02:15:06.921Z,3.40
2018-12-25T02:17:36.198Z,3.40
2018-12-25T02:20:05.543Z,3.40
2018-12-25T02:22:34.838Z,3.30
2018-12-25T02:25:04.116Z,3.30
2018-12-25T02:27:33.378Z,3.40
2018-12-25T02:30:02.696Z,3.40
2018-12-25T02:32:32.038Z,3.40
2018-12-25T02:35:01.323Z,3.40
2018-12-25T02:37:30.618Z,3.40
2018-12-25T02:39:59.988Z,3.40
2018-12-25T02:42:29.253Z,3.40
2018-12-25T02:44:58.566Z,3.30
2018-12-25T02:47:28.170Z,3.40
2018-12-25T02:49:57.457Z,3.40
2018-12-25T02:52:26.744Z,3.30
2018-12-25T02:54:56.054Z,3.30
2018-12-25T02:57:25.329Z,3.40
2018-12-25T02:59:54.677Z,3.40
2018-12-25T03:02:24.045Z,3.40
2018-12-25T03:04:53.308Z,3.40
2018-12-25T03:07:22.749Z,3.40
2018-12-25T03:09:52.062Z,3.50
2018-12-25T03:12:21.324Z,3.50
2018-12-25T03:14:50.593Z,3.50
2018-12-25T03:17:19.893Z,3.40
2018-12-25T03:19:49.156Z,3.50
2018-12-25T03:22:18.479Z,3.40
2018-12-25T03:24:47.760Z,3.50
2018-12-25T03:27:17.040Z,3.50
2018-12-25T03:29:46.330Z,3.50
2018-12-25T03:32:15.638Z,3.60
2018-12-25T03:34:44.980Z,3.60
2018-12-25T03:37:14.244Z,3.60
2018-12-25T03:39:43.555Z,3.60
2018-12-25T03:42:12.827Z,3.60
2018-12-25T03:44:42.114Z,3.50
2018-12-25T03:47:11.556Z,3.60
2018-12-25T03:49:40.877Z,3.60
2018-12-25T03:52:10.138Z,3.60
2018-12-25T03:54:39.384Z,3.60
2018-12-25T03:57:08.693Z,3.60
2018-12-25T03:59:37.997Z,3.60
2018-12-25T04:02:07.282Z,3.70
2018-12-25T04:04:36.540Z,3.70
2018-12-25T04:07:05.810Z,3.70
2018-12-25T04:09:35.089Z,3.70
2018-12-25T04:12:04.396Z,3.80
2018-12-25T04:14:33.649Z,3.70
2018-12-25T04:17:02.905Z,3.70
2018-12-25T04:19:32.201Z,3.80
2018-12-25T04:22:01.543Z,3.80
2018-12-25T04:24:30.826Z,3.80
2018-12-25T04:27:00.159Z,3.80
2018-12-25T04:29:29.436Z,3.80
2018-12-25T04:31:58.704Z,3.80
2018-12-25T04:34:28.081Z,3.90
2018-12-25T04:36:57.450Z,3.90
2018-12-25T04:39:26.733Z,3.90
2018-12-25T04:41:56.005Z,3.90
2018-12-25T04:44:25.277Z,3.90
2018-12-25T04:46:54.564Z,3.90
2018-12-25T04:49:23.832Z,3.90
2018-12-25T04:51:53.096Z,3.90
2018-12-25T04:54:22.444Z,3.90
2018-12-25T04:56:51.698Z,3.90
2018-12-25T04:59:20.975Z,3.90
2018-12-25T05:01:50.253Z,3.90
2018-12-25T05:04:19.510Z,3.90
2018-12-25T05:06:48.789Z,3.90
2018-12-25T05:09:18.060Z,3.90
2018-12-25T05:11:47.326Z,3.90
2018-12-25T05:14:16.625Z,3.90
2018-12-25T05:16:45.912Z,3.90
2018-12-25T05:19:15.160Z,4.00
2018-12-25T05:21:44.447Z,4.00
2018-12-25T05:24:13.735Z,4.00
2018-12-25T05:26:43.008Z,4.00
2018-12-25T05:29:12.298Z,4.00
2018-12-25T05:31:41.569Z,4.00
2018-12-25T05:34:10.876Z,4.00
2018-12-25T05:36:40.315Z,4.10
2018-12-25T05:39:09.601Z,4.10
2018-12-25T05:41:38.889Z,4.10
2018-12-25T05:44:08.155Z,4.10
2018-12-25T05:46:37.422Z,4.20
2018-12-25T05:49:06.688Z,4.20
2018-12-25T05:51:35.949Z,4.20
2018-12-25T05:54:05.225Z,4.20
2018-12-25T05:56:34.517Z,4.20
2018-12-25T05:59:03.805Z,4.20
2018-12-25T06:01:33.086Z,4.20
2018-12-25T06:04:02.349Z,4.20
2018-12-25T06:06:31.637Z,4.30
2018-12-25T06:09:00.894Z,4.20
2018-12-25T06:11:30.164Z,4.30
2018-12-25T06:13:59.457Z,4.20
2018-12-25T06:16:28.741Z,4.30
2018-12-25T06:18:57.985Z,4.30
2018-12-25T06:21:27.282Z,4.30
2018-12-25T06:23:56.564Z,4.30
2018-12-25T06:26:25.820Z,4.30
2018-12-25T06:28:55.108Z,4.30
2018-12-25T06:31:24.368Z,4.30
2018-12-25T06:33:53.653Z,4.30
2018-12-25T06:36:22.946Z,4.30
2018-12-25T06:38:52.195Z,4.40
2018-12-25T06:41:21.482Z,4.40
2018-12-25T06:43:50.747Z,4.40
2018-12-25T06:46:20.024Z,4.40
2018-12-25T06:48:49.340Z,4.40
2018-12-25T06:51:18.868Z,4.40
2018-12-25T06:53:48.149Z,4.30
2018-12-25T06:56:17.413Z,4.30
2018-12-25T06:58:46.681Z,4.40
2018-12-25T07:01:16.010Z,4.40
2018-12-25T07:03:45.281Z,4.40
2018-12-25T07:06:14.538Z,4.40
2018-12-25T07:08:43.845Z,4.40
2018-12-25T07:11:13.131Z,4.40
2018-12-25T07:13:42.384Z,4.40
2018-12-25T07:16:11.689Z,4.40
2018-12-25T07:18:40.957Z,4.40
2018-12-25T07:21:12.295Z,4.40
2018-12-25T07:23:41.275Z,4.40
2018-12-25T07:26:10.571Z,4.40
2018-12-25T07:28:39.828Z,4.50
2018-12-25T07:31:09.122Z,4.50
2018-12-25T07:33:38.473Z,4.40
2018-12-25T07:36:09.474Z,4.50
2018-12-25T07:38:38.904Z,4.40
2018-12-25T07:41:08.173Z,4.40
2018-12-25T07:43:37.450Z,4.40
2018-12-25T07:46:06.737Z,4.30
2018-12-25T07:48:36.006Z,4.30
2018-12-25T07:51:05.276Z,4.40
2018-12-25T07:53:34.579Z,4.40
2018-12-25T07:56:03.860Z,4.40
2018-12-25T07:58:33.170Z,4.40
2018-12-25T08:01:02.465Z,4.40
2018-12-25T08:03:31.757Z,4.40
2018-12-25T08:06:01.012Z,4.40
2018-12-25T08:08:30.299Z,4.40
2018-12-25T08:10:59.609Z,4.40
2018-12-25T08:13:28.881Z,4.40
2018-12-25T08:15:58.157Z,4.50
2018-12-25T08:18:27.519Z,4.50
2018-12-25T08:20:56.796Z,4.50
2018-12-25T08:23:26.069Z,4.50
2018-12-25T08:25:55.352Z,4.60
2018-12-25T08:28:24.612Z,4.60
2018-12-25T08:30:53.884Z,4.70
2018-12-25T08:33:23.187Z,4.80
2018-12-25T08:35:52.501Z,4.80
2018-12-25T08:38:21.779Z,4.90
2018-12-25T08:40:51.073Z,4.90
2018-12-25T08:43:20.341Z,5.00
2018-12-25T08:45:49.601Z,5.00
2018-12-25T08:48:18.904Z,5.00
2018-12-25T08:50:48.199Z,5.00
2018-12-25T08:53:17.467Z,5.10
2018-12-25T08:55:47.398Z,5.20
2018-12-25T08:58:16.835Z,5.20
2018-12-25T09:00:46.212Z,5.40
2018-12-25T09:03:15.528Z,5.50
2018-12-25T09:05:44.779Z,5.50
2018-12-25T09:08:14.076Z,5.60
2018-12-25T09:10:43.360Z,5.60
2018-12-25T09:13:12.690Z,5.60
2018-12-25T09:15:42.037Z,5.70
2018-12-25T09:18:11.349Z,5.90
2018-12-25T09:20:40.625Z,6.00
2018-12-25T09:23:09.930Z,6.10
2018-12-25T09:25:39.188Z,6.30
2018-12-25T09:28:08.481Z,6.30
2018-12-25T09:30:37.760Z,6.50
2018-12-25T09:33:07.068Z,6.70
2018-12-25T09:35:36.369Z,6.80
2018-12-25T09:38:05.693Z,6.80
2018-12-25T09:40:34.976Z,6.80
2018-12-25T09:43:04.257Z,6.90
2018-12-25T09:45:33.525Z,7.00
2018-12-25T09:48:02.845Z,7.10
2018-12-25T09:50:32.104Z,7.00
2018-12-25T09:53:01.384Z,7.10
2018-12-25T09:55:30.794Z,7.10
2018-12-25T09:58:00.054Z,7.20
2018-12-25T10:00:29.332Z,7.40
2018-12-25T10:02:58.654Z,7.60
2018-12-25T10:05:27.960Z,7.80
2018-12-25T10:07:57.256Z,8.10
2018-12-25T10:10:26.931Z,8.30
2018-12-25T10:12:56.210Z,8.60
2018-12-25T10:15:25.512Z,8.90
2018-12-25T10:17:54.798Z,9.10
2018-12-25T10:20:24.073Z,9.50
2018-12-25T10:22:53.364Z,9.80
2018-12-25T10:25:22.655Z,9.80
2018-12-25T10:27:51.937Z,9.60
2018-12-25T10:30:21.226Z,9.60
2018-12-25T10:32:50.508Z,9.70
2018-12-25T10:35:19.822Z,9.50
2018-12-25T10:37:49.093Z,9.70
2018-12-25T10:40:18.383Z,10.20
2018-12-25T10:42:47.666Z,10.50
2018-12-25T10:45:17.006Z,10.90
2018-12-25T10:47:46.292Z,11.10
2018-12-25T10:50:15.573Z,11.20
2018-12-25T10:52:44.892Z,11.20
2018-12-25T10:55:14.159Z,11.00
2018-12-25T10:57:43.419Z,10.80
2018-12-25T11:00:14.328Z,10.60
2018-12-25T11:02:43.617Z,10.10
2018-12-25T11:05:12.953Z,10.00
2018-12-25T11:07:42.202Z,9.90
2018-12-25T11:10:11.466Z,9.50
2018-12-25T11:12:40.764Z,9.30
2018-12-25T11:15:10.041Z,9.40
2018-12-25T11:17:39.320Z,9.30
2018-12-25T11:20:11.607Z,9.20
2018-12-25T11:22:39.614Z,9.20
2018-12-25T11:25:08.912Z,9.20
2018-12-25T11:27:38.181Z,9.20
2018-12-25T11:30:07.692Z,9.20
2018-12-25T11:32:36.982Z,9.20
2018-12-25T11:35:06.535Z,9.20
2018-12-25T11:37:35.825Z,9.10
2018-12-25T11:40:05.328Z,9.20
2018-12-25T11:42:34.617Z,9.10
2018-12-25T11:45:03.998Z,8.90
2018-12-25T11:47:33.269Z,8.80
2018-12-25T11:50:02.542Z,8.70
2018-12-25T11:52:31.840Z,8.60
2018-12-25T11:55:01.098Z,8.50
2018-12-25T11:57:30.392Z,8.40
2018-12-25T11:59:59.676Z,8.40
2018-12-25T12:02:29.053Z,8.40
2018-12-25T12:04:58.346Z,8.40
2018-12-25T12:07:27.609Z,8.40
2018-12-25T12:09:56.929Z,8.40
2018-12-25T12:12:26.212Z,8.40
2018-12-25T12:14:55.512Z,8.50
2018-12-25T12:17:24.797Z,8.40
2018-12-25T12:19:54.081Z,8.50
2018-12-25T12:22:23.389Z,8.60
2018-12-25T12:24:52.653Z,8.60
2018-12-25T12:27:21.920Z,8.70
2018-12-25T12:29:51.200Z,8.70
2018-12-25T12:32:20.479Z,8.70
2018-12-25T12:34:49.776Z,8.80
2018-12-25T12:37:19.056Z,8.90
2018-12-25T12:39:48.363Z,9.00
2018-12-25T12:42:17.631Z,8.90
2018-12-25T12:44:46.911Z,8.90
2018-12-25T12:47:16.196Z,9.10
2018-12-25T12:49:45.459Z,9.00
2018-12-25T12:52:14.757Z,8.90
2018-12-25T12:54:44.019Z,8.80
2018-12-25T12:57:13.282Z,8.90
2018-12-25T12:59:42.706Z,8.80
2018-12-25T13:02:12.012Z,8.80
2018-12-25T13:04:41.312Z,8.90
2018-12-25T13:07:10.590Z,8.80
2018-12-25T13:09:39.892Z,8.70
2018-12-25T13:12:09.152Z,8.70
2018-12-25T13:14:38.406Z,8.60
2018-12-25T13:17:07.690Z,8.60
2018-12-25T13:19:36.953Z,8.50
2018-12-25T13:22:06.244Z,8.30
2018-12-25T13:24:35.525Z,8.30
2018-12-25T13:27:04.803Z,8.20
2018-12-25T13:29:34.195Z,8.10
2018-12-25T13:32:03.457Z,8.00
2018-12-25T13:34:32.748Z,8.00
2018-12-25T13:37:02.027Z,8.00
2018-12-25T13:39:31.300Z,8.20
2018-12-25T13:42:00.609Z,9.40
2018-12-25T13:44:29.883Z,10.10
2018-12-25T13:46:59.260Z,10.00
2018-12-25T13:49:28.545Z,9.70
2018-12-25T13:51:57.821Z,9.20
2018-12-25T13:54:27.106Z,8.90
2018-12-25T13:56:56.369Z,8.50
2018-12-25T13:59:25.648Z,8.30
2018-12-25T14:01:54.916Z,8.40
2018-12-25T14:04:24.189Z,8.40
2018-12-25T14:06:53.496Z,8.30
2018-12-25T14:09:22.776Z,8.20
2018-12-25T14:11:52.065Z,8.20
2018-12-25T14:14:21.363Z,8.10
2018-12-25T14:16:50.661Z,7.90
2018-12-25T14:19:19.939Z,7.80
2018-12-25T14:21:49.208Z,7.80
2018-12-25T14:24:18.504Z,7.60
2018-12-25T14:26:47.774Z,7.50
2018-12-25T14:29:17.077Z,7.40
2018-12-25T14:31:46.376Z,7.30
2018-12-25T14:34:16.592Z,7.20
2018-12-25T14:36:45.999Z,7.20
2018-12-25T14:39:15.588Z,7.10
2018-12-25T14:41:44.880Z,7.10
2018-12-25T14:44:14.154Z,7.00
2018-12-25T14:46:43.437Z,7.00
2018-12-25T14:49:12.749Z,6.90
2018-12-25T14:51:42.032Z,6.90
2018-12-25T14:54:11.305Z,6.70
2018-12-25T14:56:40.612Z,6.70
2018-12-25T14:59:09.876Z,6.70
2018-12-25T15:01:39.229Z,6.70
2018-12-25T15:04:08.538Z,6.60
2018-12-25T15:06:37.836Z,6.50
2018-12-25T15:09:07.664Z,6.50
2018-12-25T15:11:36.961Z,6.40
2018-12-25T15:14:06.236Z,6.40
2018-12-25T15:16:35.564Z,6.30
2018-12-25T15:19:04.837Z,6.30
2018-12-25T15:21:34.143Z,6.20
2018-12-25T15:24:03.405Z,6.20
2018-12-25T15:26:32.720Z,6.10
2018-12-25T15:29:02.022Z,6.10
2018-12-25T15:31:31.307Z,6.10
2018-12-25T15:34:00.631Z,6.10
2018-12-25T15:36:30.014Z,6.00
2018-12-25T15:38:59.314Z,6.00
2018-12-25T15:41:28.567Z,5.90
2018-12-25T15:43:57.865Z,5.90
2018-12-25T15:46:27.165Z,5.70
2018-12-25T15:48:56.593Z,5.70
2018-12-25T15:51:26.374Z,5.60
2018-12-25T15:53:55.717Z,5.50
2018-12-25T15:56:25.001Z,5.40
2018-12-25T15:58:54.302Z,5.40
2018-12-25T16:01:23.590Z,5.40
2018-12-25T16:03:52.878Z,5.40
2018-12-25T16:06:22.175Z,5.30
2018-12-25T16:08:52.684Z,5.30
2018-12-25T16:11:21.976Z,5.30
2018-12-25T16:13:51.245Z,5.20
2018-12-25T16:16:20.526Z,5.10
2018-12-25T16:18:49.830Z,5.10
2018-12-25T16:21:19.110Z,5.00
2018-12-25T16:23:48.385Z,5.00
2018-12-25T16:26:17.669Z,4.90
2018-12-25T16:28:46.967Z,4.90
2018-12-25T16:31:16.246Z,4.90
2018-12-25T16:33:45.529Z,4.80
2018-12-25T16:36:14.823Z,4.80
2018-12-25T16:38:44.198Z,4.80
2018-12-25T16:41:13.555Z,4.70
2018-12-25T16:43:42.957Z,4.60
2018-12-25T16:46:12.243Z,4.60
2018-12-25T16:48:41.549Z,4.60
2018-12-25T16:51:10.817Z,4.70
2018-12-25T16:53:41.884Z,4.70
2018-12-25T16:56:11.130Z,4.80
2018-12-25T16:58:40.392Z,4.80
2018-12-25T17:01:09.679Z,4.80
2018-12-25T17:03:38.958Z,4.80
2018-12-25T17:06:08.229Z,4.80
2018-12-25T17:08:37.548Z,4.80
2018-12-25T17:11:06.808Z,4.80
2018-12-25T17:13:36.090Z,4.80
2018-12-25T17:16:06.255Z,4.90
2018-12-25T17:18:35.561Z,4.90
2018-12-25T17:21:04.839Z,4.80
2018-12-25T17:23:34.144Z,4.70
2018-12-25T17:26:03.418Z,4.50
2018-12-25T17:28:32.732Z,4.50
2018-12-25T17:31:01.998Z,4.50
2018-12-25T17:33:31.271Z,4.40
2018-12-25T17:36:00.578Z,4.40
2018-12-25T17:38:29.866Z,4.40
2018-12-25T17:40:59.165Z,4.40
2018-12-25T17:43:28.449Z,4.50
2018-12-25T17:45:57.719Z,4.60
2018-12-25T17:48:27.019Z,4.70
2018-12-25T17:50:56.264Z,4.70
2018-12-25T17:53:25.569Z,4.80
2018-12-25T17:55:54.843Z,4.80
2018-12-25T17:58:24.353Z,4.70
2018-12-25T18:00:53.725Z,4.70
2018-12-25T18:03:23.001Z,4.70
2018-12-25T18:05:52.285Z,4.60
2018-12-25T18:08:21.564Z,4.70
2018-12-25T18:10:50.856Z,4.60
2018-12-25T18:13:20.213Z,4.60
2018-12-25T18:15:49.476Z,4.60
2018-12-25T18:18:18.848Z,5.00
2018-12-25T18:20:48.161Z,5.60
2018-12-25T18:23:17.433Z,5.70
2018-12-25T18:25:46.806Z,6.00
2018-12-25T18:28:16.105Z,6.40
2018-12-25T18:30:45.401Z,6.50
2018-12-25T18:33:14.700Z,6.40
2018-12-25T18:35:43.977Z,6.50
2018-12-25T18:38:13.279Z,5.80
2018-12-25T18:40:42.586Z,5.30
2018-12-25T18:43:11.883Z,4.90
2018-12-25T18:45:41.172Z,4.60
2018-12-25T18:48:10.464Z,4.30
2018-12-25T18:50:39.733Z,4.10
2018-12-25T18:53:09.026Z,3.90
2018-12-25T18:55:40.185Z,3.80
2018-12-25T18:58:09.340Z,3.70
2018-12-25T19:00:38.633Z,3.60
2018-12-25T19:03:07.913Z,3.50
2018-12-25T19:05:37.224Z,3.40
2018-12-25T19:08:06.483Z,3.30
2018-12-25T19:10:35.784Z,3.20
2018-12-25T19:13:05.182Z,3.20
2018-12-25T19:15:35.564Z,3.00
2018-12-25T19:18:06.117Z,3.10
2018-12-25T19:20:35.394Z,3.10
2018-12-25T19:23:04.692Z,3.10
2018-12-25T19:25:33.955Z,3.00
2018-12-25T19:28:03.253Z,2.90
2018-12-25T19:30:34.553Z,2.80
2018-12-25T19:33:03.822Z,2.70
2018-12-25T19:35:33.118Z,2.70
2018-12-25T19:38:02.405Z,2.60
2018-12-25T19:40:31.741Z,2.50
2018-12-25T19:43:01.004Z,2.50
2018-12-25T19:45:31.884Z,2.50
2018-12-25T19:48:01.158Z,2.40
2018-12-25T19:50:30.477Z,2.40
2018-12-25T19:52:59.762Z,2.30
2018-12-25T19:55:29.043Z,2.30
2018-12-25T19:57:58.313Z,2.30
2018-12-25T20:00:27.687Z,2.20
2018-12-25T20:03:09.749Z,2.40
2018-12-25T20:06:18.872Z,2.30
2018-12-25T20:09:23.996Z,2.30
2018-12-25T20:12:40.218Z,2.20
2018-12-25T20:15:44.569Z,2.30
2018-12-25T20:18:41.577Z,2.30
2018-12-25T20:22:02.777Z,2.40
2018-12-25T20:24:59.808Z,2.40
2018-12-25T20:28:00.162Z,2.20
2018-12-25T20:31:06.603Z,2.00
2018-12-25T20:34:23.269Z,1.80
2018-12-25T20:37:28.888Z,1.80
2018-12-25T20:40:55.824Z,1.80
2018-12-25T20:44:24.104Z,1.80
2018-12-25T20:47:30.532Z,1.70
2018-12-25T20:51:02.087Z,1.80
2018-12-25T20:54:12.702Z,1.80
2018-12-25T20:57:26.005Z,1.60
2018-12-25T21:00:50.021Z,1.60
2018-12-25T21:03:56.314Z,1.60
2018-12-25T21:06:54.929Z,1.60
2018-12-25T21:10:14.684Z,1.60
2018-12-25T21:13:34.094Z,1.60
2018-12-25T21:16:55.650Z,1.60
2018-12-25T21:20:20.289Z,1.40
2018-12-25T21:23:25.535Z,1.50
2018-12-25T21:26:50.147Z,1.60
2018-12-25T21:29:19.471Z,1.50
2018-12-25T21:31:48.735Z,1.60
2018-12-25T21:34:18.219Z,1.60
2018-12-25T21:36:50.788Z,1.60
2018-12-25T21:39:20.387Z,1.50
2018-12-25T21:41:49.656Z,1.50
2018-12-25T21:44:19.717Z,1.60
2018-12-25T21:46:49.235Z,1.50
2018-12-25T21:49:18.731Z,1.50
2018-12-25T21:51:48.015Z,1.30
2018-12-25T21:54:17.713Z,1.20
2018-12-25T21:56:47.208Z,1.10
2018-12-25T21:59:17.185Z,1.10
2018-12-25T22:01:46.516Z,1.00
2018-12-25T22:04:15.940Z,1.10
2018-12-25T22:06:45.232Z,1.00
2018-12-25T22:09:14.508Z,1.00
2018-12-25T22:11:45.375Z,1.00
2018-12-25T22:14:14.810Z,1.10
2018-12-25T22:16:44.106Z,1.20
2018-12-25T22:19:13.364Z,1.20
2018-12-25T22:21:42.651Z,1.10
2018-12-25T22:24:11.935Z,1.10
2018-12-25T22:26:41.286Z,1.10
2018-12-25T22:29:10.670Z,1.10
2018-12-25T22:31:39.957Z,1.10
2018-12-25T22:34:09.304Z,1.00
2018-12-25T22:36:38.632Z,0.90
2018-12-25T22:39:07.926Z,0.90
2018-12-25T22:41:37.240Z,0.90
2018-12-25T22:44:06.605Z,1.00
2018-12-25T22:46:35.890Z,1.00
2018-12-25T22:49:07.134Z,1.00
2018-12-25T22:51:36.239Z,1.00
2018-12-25T22:54:05.529Z,1.00
2018-12-25T22:56:34.875Z,0.90
2018-12-25T22:59:06.925Z,0.80
2018-12-25T23:01:36.203Z,0.90
2018-12-25T23:04:05.480Z,0.90
2018-12-25T23:06:34.756Z,0.80
2018-12-25T23:09:05.403Z,0.70
2018-12-25T23:11:34.683Z,0.70
2018-12-25T23:14:04.013Z,0.70
2018-12-25T23:16:33.349Z,0.70
2018-12-25T23:19:02.658Z,0.70
2018-12-25T23:21:32.017Z,0.80
2018-12-25T23:24:01.313Z,0.80
2018-12-25T23:26:30.627Z,0.80
2018-12-25T23:29:00.021Z,0.70
2018-12-25T23:31:29.562Z,0.70
2018-12-25T23:33:59.458Z,0.80
2018-12-25T23:36:30.440Z,0.80
2018-12-25T23:38:59.728Z,0.70
2018-12-25T23:41:29.024Z,0.60
2018-12-25T23:43:59.392Z,0.50
2018-12-25T23:46:28.706Z,0.50
2018-12-25T23:48:57.988Z,0.40
2018-12-25T23:51:27.277Z,0.50
2018-12-25T23:53:56.583Z,0.40
2018-12-25T23:56:25.877Z,0.30
2018-12-25T23:58:55.295Z,0.20
